Time;durP1;ratioP1;P1;durP2;ratioP2;P2;SDS_P1;SDS_P2;PMS_P1;PMS_P2;Temp;Humidity;BMP_temperature;BMP_pressure;BME280_temperature;BME280_humidity;BME280_pressure;Samples;Min_cycle;Max_cycle;Signal;HPM_P1;HPM_P2
2021/07/19 00:00:24;;;;;;;;;;;;;;;;;;2106623;28;45226;-66
2021/07/19 00:01:26;;;;;;;;;;;;;;;;;;2106568;28;46472;-66
2021/07/19 00:02:27;;;;;;;;;;;;;;;;;;2098030;28;45424;-66
2021/07/19 00:03:29;;;;;;;;;;;;;;;;;;2098592;28;44972;-66
2021/07/19 00:04:33;;;;;;;;;;;;;;;;;;2106387;28;46413;-66
2021/07/19 00:05:34;;;;;;;;;;;;;;;;;;2106567;28;46478;-66
2021/07/19 00:06:52;;;;;;;;;;;;;;;;;;2106463;28;46443;-66
2021/07/19 00:07:54;;;;;;;;;;;;;;;;;;2106949;28;44031;-66
2021/07/19 00:08:55;;;;;;;;;;;;;;;;;;2106752;28;44406;-66
2021/07/19 00:09:56;;;;;;;;;;;;;;;;;;2106690;28;46505;-66
2021/07/19 00:10:58;;;;;;;;;;;;;;;;;;2107397;28;44036;-66
2021/07/19 00:12:00;;;;;;;;;;;;;;;;;;2107076;28;46546;-66
2021/07/19 00:13:03;;;;;;;;;;;;;;;;;;2106575;28;46369;-66
2021/07/19 00:14:05;;;;;;;;;;;;;;;;;;2106933;28;45517;-66
2021/07/19 00:15:09;;;;;;;;;;;;;;;;;;2106499;28;46659;-66
2021/07/19 00:16:11;;;;;;;;;;;;;;;;;;2106750;28;44886;-66
2021/07/19 00:17:13;;;;;;;;;;;;;;;;;;2106509;28;45600;-66
2021/07/19 00:18:14;;;;;;;;;;;;;;;;;;2106502;28;44203;-66
2021/07/19 00:19:18;;;;;;;;;;;;;;;;;;2106776;28;45953;-66
2021/07/19 00:20:20;;;;;;;;;;;;;;;;;;2098827;28;45660;-66
2021/07/19 00:21:22;;;;;;;;;;;;;;;;;;2106426;28;46807;-66
2021/07/19 00:22:23;;;;;;;;;;;;;;;;;;2106898;28;46788;-66
2021/07/19 00:23:25;;;;;;;;;;;;;;;;;;2107049;28;46565;-66
2021/07/19 00:24:27;;;;;;;;;;;;;;;;;;2106123;28;45602;-66
2021/07/19 00:25:28;;;;;;;;;;;;;;;;;;2106517;28;46816;-66
2021/07/19 00:26:30;;;;;;;;;;;;;;;;;;2097945;28;46458;-66
2021/07/19 00:27:31;;;;;;;;;;;;;;;;;;2097947;28;44337;-66
2021/07/19 00:28:33;;;;;;;;;;;;;;;;;;2106112;28;46510;-66
2021/07/19 00:29:34;;;;;;;;;;;;;;;;;;2106484;28;44228;-66
2021/07/19 00:30:37;;;;;;;;;;;;;;;;;;2106840;28;45281;-66
2021/07/19 00:31:38;;;;;;;;;;;;;;;;;;2106162;28;45882;-66
2021/07/19 00:32:40;;;;;;;;;;;;;;;;;;2106133;28;45443;-66
2021/07/19 00:33:43;;;;;;;;;;;;;;;;;;2106130;28;45555;-66
2021/07/19 00:34:45;;;;;;;;;;;;;;;;;;2106486;28;44008;-66
2021/07/19 00:35:47;;;;;;;;;;;;;;;;;;2098379;28;46679;-66
2021/07/19 00:36:50;;;;;;;;;;;;;;;;;;2106196;28;47118;-66
2021/07/19 00:37:51;;;;;;;;;;;;;;;;;;2106766;28;47312;-66
2021/07/19 00:38:53;;;;;;;;;;;;;;;;;;2107160;28;45490;-66
2021/07/19 00:39:54;;;;;;;;;;;;;;;;;;2106930;28;45704;-66
2021/07/19 00:41:15;;;;;;;;;;;;;;;;;;2105876;28;46871;-66
2021/07/19 00:42:16;;;;;;;;;;;;;;;;;;2106088;28;47068;-66
2021/07/19 00:43:17;;;;;;;;;;;;;;;;;;2106807;28;46915;-67
2021/07/19 00:44:22;;;;;;;;;;;;;;;;;;2107171;28;44849;-67
2021/07/19 00:45:26;;;;;;;;;;;;;;;;;;2106732;28;47331;-66
2021/07/19 00:46:27;;;;;;;;;;;;;;;;;;2106011;28;44757;-66
2021/07/19 00:47:29;;;;;;;;;;;;;;;;;;2098111;28;47237;-76
2021/07/19 00:48:30;;;;;;;;;;;;;;;;;;2106209;28;44582;-77
2021/07/19 00:49:33;;;;;;;;;;;;;;;;;;2106577;28;46066;-77
2021/07/19 00:50:37;;;;;;;;;;;;;;;;;;2097983;28;46992;-77
2021/07/19 00:51:38;;;;;;;;;;;;;;;;;;2106298;28;46479;-77
2021/07/19 00:52:40;;;;;;;;;;;;;;;;;;2105938;28;45791;-78
2021/07/19 00:53:41;;;;;;;;;;;;;;;;;;2106234;28;47002;-78
2021/07/19 00:54:44;;;;;;;;;;;;;;;;;;2106037;28;45850;-78
2021/07/19 00:55:47;;;;;;;;;;;;;;;;;;2106121;28;47426;-79
2021/07/19 00:56:49;;;;;;;;;;;;;;;;;;2105990;28;45320;-78
2021/07/19 00:57:51;;;;;;;;;;;;;;;;;;2097944;28;46109;-76
2021/07/19 00:58:54;;;;;;;;;;;;;;;;;;2106541;28;44711;-76
2021/07/19 00:59:56;;;;;;;;;;;;;;;;;;2107092;28;45135;-78
2021/07/19 01:00:59;;;;;;;;;;;;;;;;;;2106164;28;44813;-79
2021/07/19 01:02:02;;;;;;;;;;;;;;;;;;2106357;28;45217;-78
2021/07/19 01:03:04;;;;;;;;;;;;;;;;;;2106864;28;44762;-73
2021/07/19 01:04:08;;;;;;;;;;;;;;;;;;2106221;28;44663;-75
2021/07/19 01:05:10;;;;;;;;;;;;;;;;;;2098048;28;46672;-74
2021/07/19 01:06:12;;;;;;;;;;;;;;;;;;2106123;28;44258;-72
2021/07/19 01:07:14;;;;;;;;;;;;;;;;;;2106089;28;45636;-74
2021/07/19 01:08:17;;;;;;;;;;;;;;;;;;2097915;28;47269;-72
2021/07/19 01:09:20;;;;;;;;;;;;;;;;;;2106014;28;45385;-72
2021/07/19 01:10:21;;;;;;;;;;;;;;;;;;2106278;28;45201;-73
2021/07/19 01:11:23;;;;;;;;;;;;;;;;;;2106795;28;46367;-71
2021/07/19 01:12:25;;;;;;;;;;;;;;;;;;2106212;28;44081;-74
2021/07/19 01:13:27;;;;;;;;;;;;;;;;;;2106246;28;45225;-74
2021/07/19 01:14:29;;;;;;;;;;;;;;;;;;2105983;28;46366;-74
2021/07/19 01:15:31;;;;;;;;;;;;;;;;;;2106647;28;45274;-74
2021/07/19 01:16:33;;;;;;;;;;;;;;;;;;2114452;28;45227;-74
2021/07/19 01:17:34;;;;;;;;;;;;;;;;;;2114219;28;46346;-75
2021/07/19 01:18:36;;;;;;;;;;;;;;;;;;2105449;28;45276;-74
2021/07/19 01:19:38;;;;;;;;;;;;;;;;;;2105963;28;45252;-74
2021/07/19 01:20:39;;;;;;;;;;;;;;;;;;2106246;28;46654;-74
2021/07/19 01:21:44;;;;;;;;;;;;;;;;;;2105919;28;45192;-74
2021/07/19 01:23:03;;;;;;;;;;;;;;;;;;2106371;28;45383;-74
2021/07/19 01:24:09;;;;;;;;;;;;;;;;;;2106604;28;45485;-75
2021/07/19 01:25:29;;;;;;;;;;;;;;;;;;2106620;28;42656;-75
2021/07/19 01:26:45;;;;;;;;;;;;;;;;;;2105906;28;46523;-75
2021/07/19 01:27:53;;;;;;;;;;;;;;;;;;2106176;28;44291;-76
2021/07/19 01:28:55;;;;;;;;;;;;;;;;;;2106175;28;43629;-75
2021/07/19 01:29:57;;;;;;;;;;;;;;;;;;2097774;28;45570;-76
2021/07/19 01:31:02;;;;;;;;;;;;;;;;;;2105849;28;46835;-76
2021/07/19 01:32:04;;;;;;;;;;;;;;;;;;2114266;28;44039;-76
2021/07/19 01:33:06;;;;;;;;;;;;;;;;;;2114110;28;44463;-76
2021/07/19 01:34:09;;;;;;;;;;;;;;;;;;2114318;28;44418;-77
2021/07/19 01:35:12;;;;;;;;;;;;;;;;;;2105813;28;45780;-76
2021/07/19 01:36:14;;;;;;;;;;;;;;;;;;2105470;28;44337;-76
2021/07/19 01:37:16;;;;;;;;;;;;;;;;;;2097786;28;45419;-76
2021/07/19 01:38:18;;;;;;;;;;;;;;;;;;2097715;28;45673;-76
2021/07/19 01:39:20;;;;;;;;;;;;;;;;;;2105896;28;44534;-76
2021/07/19 01:40:23;;;;;;;;;;;;;;;;;;2105473;28;45275;-75
2021/07/19 01:41:25;;;;;;;;;;;;;;;;;;2106414;28;42537;-76
2021/07/19 01:42:26;;;;;;;;;;;;;;;;;;2113815;28;46656;-74
2021/07/19 01:43:29;;;;;;;;;;;;;;;;;;2114709;28;44129;-75
2021/07/19 01:44:31;;;;;;;;;;;;;;;;;;2115177;27;47325;-75
2021/07/19 01:45:36;;;;;;;;;;;;;;;;;;2114371;28;45944;-76
2021/07/19 01:46:39;;;;;;;;;;;;;;;;;;2114173;28;45955;-74
2021/07/19 01:47:41;;;;;;;;;;;;;;;;;;2114202;28;46199;-75
2021/07/19 01:48:43;;;;;;;;;;;;;;;;;;2105897;28;44357;-74
2021/07/19 01:49:44;;;;;;;;;;;;;;;;;;2106040;28;46914;-74
2021/07/19 01:50:46;;;;;;;;;;;;;;;;;;2105900;28;45823;-74
2021/07/19 01:51:48;;;;;;;;;;;;;;;;;;2114348;28;45868;-75
2021/07/19 01:52:50;;;;;;;;;;;;;;;;;;2114400;27;47336;-74
2021/07/19 01:53:52;;;;;;;;;;;;;;;;;;2114135;28;45740;-74
2021/07/19 01:54:53;;;;;;;;;;;;;;;;;;2114185;28;45840;-76
2021/07/19 01:55:56;;;;;;;;;;;;;;;;;;2114100;28;45823;-74
2021/07/19 01:56:58;;;;;;;;;;;;;;;;;;2106190;28;47178;-74
2021/07/19 01:58:00;;;;;;;;;;;;;;;;;;2113980;28;46614;-74
2021/07/19 01:59:02;;;;;;;;;;;;;;;;;;2113986;28;43741;-74
2021/07/19 02:00:07;;;;;;;;;;;;;;;;;;2105968;28;46082;-73
2021/07/19 02:01:09;;;;;;;;;;;;;;;;;;2106359;28;44488;-74
2021/07/19 02:02:11;;;;;;;;;;;;;;;;;;2114120;28;46598;-76
2021/07/19 02:03:16;;;;;;;;;;;;;;;;;;2114471;28;44248;-74
2021/07/19 02:04:17;;;;;;;;;;;;;;;;;;2106222;28;45983;-75
2021/07/19 02:05:19;;;;;;;;;;;;;;;;;;2105825;28;45860;-75
2021/07/19 02:06:22;;;;;;;;;;;;;;;;;;2114437;28;45267;-76
2021/07/19 02:07:25;;;;;;;;;;;;;;;;;;2106016;28;45901;-75
2021/07/19 02:08:27;;;;;;;;;;;;;;;;;;2113739;28;46590;-75
2021/07/19 02:09:29;;;;;;;;;;;;;;;;;;2113991;28;45263;-75
2021/07/19 02:10:32;;;;;;;;;;;;;;;;;;2105815;28;47009;-76
2021/07/19 02:11:34;;;;;;;;;;;;;;;;;;2113985;28;46652;-75
2021/07/19 02:12:37;;;;;;;;;;;;;;;;;;2113911;28;43052;-75
2021/07/19 02:13:41;;;;;;;;;;;;;;;;;;2105758;28;44089;-76
2021/07/19 02:14:44;;;;;;;;;;;;;;;;;;2114126;28;45436;-76
2021/07/19 02:15:49;;;;;;;;;;;;;;;;;;2107665;27;43973;-76
2021/07/19 02:16:53;;;;;;;;;;;;;;;;;;2114246;28;44066;-75
2021/07/19 02:17:56;;;;;;;;;;;;;;;;;;2113707;28;46779;-75
2021/07/19 02:18:58;;;;;;;;;;;;;;;;;;2114185;28;44589;-75
2021/07/19 02:19:59;;;;;;;;;;;;;;;;;;2114157;27;44016;-75
2021/07/19 02:21:04;;;;;;;;;;;;;;;;;;2105800;28;46740;-75
2021/07/19 02:22:07;;;;;;;;;;;;;;;;;;2105930;28;45162;-75
2021/07/19 02:23:09;;;;;;;;;;;;;;;;;;2105494;28;46327;-75
2021/07/19 02:24:11;;;;;;;;;;;;;;;;;;2113486;28;45191;-74
2021/07/19 02:25:21;;;;;;;;;;;;;;;;;;2105460;28;45664;-73
2021/07/19 02:26:24;;;;;;;;;;;;;;;;;;2106622;28;45124;-73
2021/07/19 02:27:27;;;;;;;;;;;;;;;;;;2105916;28;44115;-73
2021/07/19 02:28:28;;;;;;;;;;;;;;;;;;2105938;28;45410;-73
2021/07/19 02:29:30;;;;;;;;;;;;;;;;;;2113974;28;45449;-73
2021/07/19 02:30:32;;;;;;;;;;;;;;;;;;2114896;27;46466;-75
2021/07/19 02:31:33;;;;;;;;;;;;;;;;;;2114443;28;46936;-75
2021/07/19 02:32:37;;;;;;;;;;;;;;;;;;2105927;28;46812;-75
2021/07/19 02:33:39;;;;;;;;;;;;;;;;;;2114527;28;46458;-75
2021/07/19 02:34:40;;;;;;;;;;;;;;;;;;2106673;28;45319;-75
2021/07/19 02:35:42;;;;;;;;;;;;;;;;;;2106408;28;43468;-75
2021/07/19 02:36:44;;;;;;;;;;;;;;;;;;2114484;28;45360;-75
2021/07/19 02:37:47;;;;;;;;;;;;;;;;;;2114659;28;44128;-75
2021/07/19 02:38:50;;;;;;;;;;;;;;;;;;2114275;27;46545;-75
2021/07/19 02:39:51;;;;;;;;;;;;;;;;;;2113851;28;46944;-75
2021/07/19 02:40:53;;;;;;;;;;;;;;;;;;2113883;28;45330;-75
2021/07/19 02:41:55;;;;;;;;;;;;;;;;;;2114206;28;45390;-76
2021/07/19 02:42:57;;;;;;;;;;;;;;;;;;2105339;28;46440;-76
2021/07/19 02:44:00;;;;;;;;;;;;;;;;;;2113872;28;44048;-76
2021/07/19 02:45:06;;;;;;;;;;;;;;;;;;2114138;28;44973;-76
2021/07/19 02:46:08;;;;;;;;;;;;;;;;;;2113900;28;46598;-76
2021/07/19 02:47:10;;;;;;;;;;;;;;;;;;2104918;28;45446;-75
2021/07/19 02:48:12;;;;;;;;;;;;;;;;;;2114294;28;45810;-74
2021/07/19 02:49:14;;;;;;;;;;;;;;;;;;2114355;27;45553;-74
2021/07/19 02:50:24;;;;;;;;;;;;;;;;;;2106467;28;45430;-74
2021/07/19 02:51:27;;;;;;;;;;;;;;;;;;2107605;28;44712;-74
2021/07/19 02:52:29;;;;;;;;;;;;;;;;;;2106459;28;46057;-74
2021/07/19 02:53:33;;;;;;;;;;;;;;;;;;2114681;28;47394;-74
2021/07/19 02:54:35;;;;;;;;;;;;;;;;;;2114437;28;44471;-74
2021/07/19 02:55:37;;;;;;;;;;;;;;;;;;2105997;28;46038;-74
2021/07/19 02:56:41;;;;;;;;;;;;;;;;;;2106039;28;45753;-75
2021/07/19 02:57:42;;;;;;;;;;;;;;;;;;2113815;27;47731;-75
2021/07/19 02:58:44;;;;;;;;;;;;;;;;;;2114964;27;45549;-75
2021/07/19 02:59:45;;;;;;;;;;;;;;;;;;2114296;27;47263;-74
2021/07/19 03:00:48;;;;;;;;;;;;;;;;;;2105763;28;46940;-75
2021/07/19 03:01:52;;;;;;;;;;;;;;;;;;2114193;28;45862;-74
2021/07/19 03:02:57;;;;;;;;;;;;;;;;;;2114160;28;47374;-74
2021/07/19 03:04:00;;;;;;;;;;;;;;;;;;2106085;28;46270;-76
2021/07/19 03:05:07;;;;;;;;;;;;;;;;;;2113856;28;46061;-75
2021/07/19 03:06:09;;;;;;;;;;;;;;;;;;2113652;28;46101;-76
2021/07/19 03:07:12;;;;;;;;;;;;;;;;;;2105628;28;45832;-76
2021/07/19 03:08:14;;;;;;;;;;;;;;;;;;2113862;28;45986;-76
2021/07/19 03:09:17;;;;;;;;;;;;;;;;;;2113674;28;45763;-76
2021/07/19 03:10:22;;;;;;;;;;;;;;;;;;2113856;28;45709;-76
2021/07/19 03:11:36;;;;;;;;;;;;;;;;;;2113967;28;47250;-76
2021/07/19 03:12:39;;;;;;;;;;;;;;;;;;2113575;28;44193;-76
2021/07/19 03:13:41;;;;;;;;;;;;;;;;;;2114139;28;44819;-76
2021/07/19 03:14:47;;;;;;;;;;;;;;;;;;2105648;28;45884;-75
2021/07/19 03:15:49;;;;;;;;;;;;;;;;;;2106046;28;43731;-75
2021/07/19 03:16:52;;;;;;;;;;;;;;;;;;2113567;28;46342;-75
2021/07/19 03:18:02;;;;;;;;;;;;;;;;;;2113663;28;45285;-74
2021/07/19 03:19:07;;;;;;;;;;;;;;;;;;2113632;28;45360;-75
2021/07/19 03:20:09;;;;;;;;;;;;;;;;;;2113745;28;45287;-75
2021/07/19 03:21:10;;;;;;;;;;;;;;;;;;2114145;27;46615;-75
2021/07/19 03:22:13;;;;;;;;;;;;;;;;;;2114130;28;45492;-75
2021/07/19 03:23:15;;;;;;;;;;;;;;;;;;2113668;28;45293;-75
2021/07/19 03:24:17;;;;;;;;;;;;;;;;;;2105513;28;45189;-75
2021/07/19 03:25:23;;;;;;;;;;;;;;;;;;2113607;28;43506;-75
2021/07/19 03:26:28;;;;;;;;;;;;;;;;;;2113610;28;46373;-75
2021/07/19 03:27:30;;;;;;;;;;;;;;;;;;2106217;28;43824;-76
2021/07/19 03:28:32;;;;;;;;;;;;;;;;;;2113565;28;45270;-75
2021/07/19 03:29:35;;;;;;;;;;;;;;;;;;2105748;28;45873;-75
2021/07/19 03:30:37;;;;;;;;;;;;;;;;;;2105554;28;46835;-75
2021/07/19 03:31:39;;;;;;;;;;;;;;;;;;2113548;28;46741;-75
2021/07/19 03:32:42;;;;;;;;;;;;;;;;;;2113334;28;46321;-75
2021/07/19 03:33:44;;;;;;;;;;;;;;;;;;2105319;28;45280;-75
2021/07/19 03:34:45;;;;;;;;;;;;;;;;;;2113583;28;45473;-75
2021/07/19 03:35:48;;;;;;;;;;;;;;;;;;2113978;28;45229;-75
2021/07/19 03:36:53;;;;;;;;;;;;;;;;;;2105716;28;45180;-75
2021/07/19 03:37:54;;;;;;;;;;;;;;;;;;2114003;28;44462;-73
2021/07/19 03:38:56;;;;;;;;;;;;;;;;;;2114216;28;46872;-73
2021/07/19 03:39:58;;;;;;;;;;;;;;;;;;2107134;28;45603;-72
2021/07/19 03:41:00;;;;;;;;;;;;;;;;;;2114882;28;46702;-72
2021/07/19 03:42:02;;;;;;;;;;;;;;;;;;2114375;28;44994;-73
2021/07/19 03:43:03;;;;;;;;;;;;;;;;;;2114121;28;46721;-73
2021/07/19 03:44:05;;;;;;;;;;;;;;;;;;2105678;28;46621;-74
2021/07/19 03:45:09;;;;;;;;;;;;;;;;;;2114002;28;46181;-74
2021/07/19 03:46:11;;;;;;;;;;;;;;;;;;2113942;28;45508;-74
2021/07/19 03:47:13;;;;;;;;;;;;;;;;;;2114370;28;45497;-74
2021/07/19 03:48:16;;;;;;;;;;;;;;;;;;2114966;27;46301;-74
2021/07/19 03:49:20;;;;;;;;;;;;;;;;;;2115437;27;46627;-74
2021/07/19 03:50:22;;;;;;;;;;;;;;;;;;2113854;28;46868;-73
2021/07/19 03:51:27;;;;;;;;;;;;;;;;;;2114193;28;45560;-73
2021/07/19 03:52:28;;;;;;;;;;;;;;;;;;2113759;28;45793;-73
2021/07/19 03:53:30;;;;;;;;;;;;;;;;;;2114630;27;43940;-75
2021/07/19 03:54:33;;;;;;;;;;;;;;;;;;2113750;28;46834;-75
2021/07/19 03:55:35;;;;;;;;;;;;;;;;;;2113573;28;46848;-75
2021/07/19 03:56:37;;;;;;;;;;;;;;;;;;2113279;28;45536;-75
2021/07/19 03:57:39;;;;;;;;;;;;;;;;;;2113875;28;45545;-75
2021/07/19 03:58:41;;;;;;;;;;;;;;;;;;2113736;27;46002;-75
2021/07/19 03:59:45;;;;;;;;;;;;;;;;;;2115049;28;46005;-75
2021/07/19 04:00:46;;;;;;;;;;;;;;;;;;2115036;27;46089;-75
2021/07/19 04:01:48;;;;;;;;;;;;;;;;;;2114981;28;46264;-76
2021/07/19 04:02:53;;;;;;;;;;;;;;;;;;2114616;28;46054;-74
2021/07/19 04:04:04;;;;;;;;;;;;;;;;;;2107101;28;45830;-74
2021/07/19 04:05:07;;;;;;;;;;;;;;;;;;2115052;28;45858;-75
2021/07/19 04:06:11;;;;;;;;;;;;;;;;;;2115528;27;46900;-75
2021/07/19 04:07:14;;;;;;;;;;;;;;;;;;2115744;27;44907;-75
2021/07/19 04:08:16;;;;;;;;;;;;;;;;;;2114482;28;45630;-78
2021/07/19 04:09:18;;;;;;;;;;;;;;;;;;2114915;28;47465;-77
2021/07/19 04:10:20;;;;;;;;;;;;;;;;;;2115057;27;44071;-77
2021/07/19 04:11:22;;;;;;;;;;;;;;;;;;2115382;28;45937;-77
2021/07/19 04:12:25;;;;;;;;;;;;;;;;;;2114783;28;46078;-76
2021/07/19 04:13:27;;;;;;;;;;;;;;;;;;2107859;27;47348;-76
2021/07/19 04:14:30;;;;;;;;;;;;;;;;;;2106524;28;47857;-76
2021/07/19 04:15:33;;;;;;;;;;;;;;;;;;2098355;28;46207;-76
2021/07/19 04:16:35;;;;;;;;;;;;;;;;;;2106226;28;45866;-75
2021/07/19 04:17:37;;;;;;;;;;;;;;;;;;2098200;28;46783;-76
2021/07/19 04:18:38;;;;;;;;;;;;;;;;;;2106310;28;45153;-77
2021/07/19 04:19:43;;;;;;;;;;;;;;;;;;2106459;28;46233;-76
2021/07/19 04:20:45;;;;;;;;;;;;;;;;;;2098927;28;47128;-75
2021/07/19 04:21:47;;;;;;;;;;;;;;;;;;2106453;28;43006;-75
2021/07/19 04:22:48;;;;;;;;;;;;;;;;;;2107062;28;45263;-76
2021/07/19 04:23:51;;;;;;;;;;;;;;;;;;2106593;28;44995;-76
2021/07/19 04:24:52;;;;;;;;;;;;;;;;;;2106411;28;45047;-76
2021/07/19 04:25:54;;;;;;;;;;;;;;;;;;2106493;28;46252;-75
2021/07/19 04:26:56;;;;;;;;;;;;;;;;;;2106944;28;46402;-74
2021/07/19 04:27:57;;;;;;;;;;;;;;;;;;2106287;28;44819;-74
2021/07/19 04:29:03;;;;;;;;;;;;;;;;;;2098410;28;43500;-74
2021/07/19 04:30:05;;;;;;;;;;;;;;;;;;2106829;28;46463;-74
2021/07/19 04:31:07;;;;;;;;;;;;;;;;;;2106256;28;45271;-73
2021/07/19 04:32:11;;;;;;;;;;;;;;;;;;2106187;28;45609;-73
2021/07/19 04:33:16;;;;;;;;;;;;;;;;;;2098254;28;45420;-73
2021/07/19 04:34:28;;;;;;;;;;;;;;;;;;2098434;28;44042;-73
2021/07/19 04:35:30;;;;;;;;;;;;;;;;;;2099004;28;45121;-73
2021/07/19 04:36:32;;;;;;;;;;;;;;;;;;2098163;28;45284;-73
2021/07/19 04:37:33;;;;;;;;;;;;;;;;;;2106143;28;45602;-74
2021/07/19 04:38:35;;;;;;;;;;;;;;;;;;2097729;28;46406;-73
2021/07/19 04:39:38;;;;;;;;;;;;;;;;;;2098046;28;46275;-73
2021/07/19 04:40:40;;;;;;;;;;;;;;;;;;2105975;28;46468;-73
2021/07/19 04:41:42;;;;;;;;;;;;;;;;;;2097968;28;46266;-74
2021/07/19 04:42:43;;;;;;;;;;;;;;;;;;2106612;28;42406;-73
2021/07/19 04:43:46;;;;;;;;;;;;;;;;;;2106225;28;45765;-73
2021/07/19 04:44:47;;;;;;;;;;;;;;;;;;2106209;28;45238;-73
2021/07/19 04:45:51;;;;;;;;;;;;;;;;;;2106761;28;43162;-74
2021/07/19 04:46:54;;;;;;;;;;;;;;;;;;2105989;28;47476;-74
2021/07/19 04:47:55;;;;;;;;;;;;;;;;;;2097809;28;44158;-74
2021/07/19 04:48:57;;;;;;;;;;;;;;;;;;2106180;28;46070;-74
2021/07/19 04:49:58;;;;;;;;;;;;;;;;;;2106092;28;44542;-74
2021/07/19 04:51:00;;;;;;;;;;;;;;;;;;2106521;28;42988;-74
2021/07/19 04:52:02;;;;;;;;;;;;;;;;;;2106374;28;43724;-72
2021/07/19 04:53:04;;;;;;;;;;;;;;;;;;2106458;28;46535;-72
2021/07/19 04:54:06;;;;;;;;;;;;;;;;;;2107211;28;45593;-72
2021/07/19 04:55:12;;;;;;;;;;;;;;;;;;2107011;28;44884;-72
2021/07/19 04:56:18;;;;;;;;;;;;;;;;;;2106631;28;46928;-72
2021/07/19 04:57:20;;;;;;;;;;;;;;;;;;2106961;28;46427;-72
2021/07/19 04:58:22;;;;;;;;;;;;;;;;;;2106855;28;43915;-74
2021/07/19 04:59:27;;;;;;;;;;;;;;;;;;2106842;28;44658;-73
2021/07/19 05:00:29;;;;;;;;;;;;;;;;;;2105982;28;45462;-73
2021/07/19 05:01:33;;;;;;;;;;;;;;;;;;2106315;28;45397;-73
2021/07/19 05:02:36;;;;;;;;;;;;;;;;;;2105865;28;45294;-73
2021/07/19 05:03:40;;;;;;;;;;;;;;;;;;2098246;28;44697;-75
2021/07/19 05:04:42;;;;;;;;;;;;;;;;;;2106486;28;44025;-75
2021/07/19 05:05:45;;;;;;;;;;;;;;;;;;2106176;28;46046;-75
2021/07/19 05:06:50;;;;;;;;;;;;;;;;;;2107066;28;44675;-75
2021/07/19 05:07:52;;;;;;;;;;;;;;;;;;2106061;28;46154;-75
2021/07/19 05:08:54;;;;;;;;;;;;;;;;;;2105924;28;45814;-74
2021/07/19 05:09:56;;;;;;;;;;;;;;;;;;2106100;28;46259;-74
2021/07/19 05:10:58;;;;;;;;;;;;;;;;;;2105546;28;47141;-75
2021/07/19 05:12:00;;;;;;;;;;;;;;;;;;2106002;28;46107;-74
2021/07/19 05:13:02;;;;;;;;;;;;;;;;;;2106811;28;44568;-74
2021/07/19 05:14:05;;;;;;;;;;;;;;;;;;2107037;28;47088;-75
2021/07/19 05:15:08;;;;;;;;;;;;;;;;;;2098912;28;45413;-75
2021/07/19 05:16:10;;;;;;;;;;;;;;;;;;2106729;28;46322;-74
2021/07/19 05:17:13;;;;;;;;;;;;;;;;;;2106749;28;47575;-74
2021/07/19 05:18:18;;;;;;;;;;;;;;;;;;2106851;28;48070;-76
2021/07/19 05:19:21;;;;;;;;;;;;;;;;;;2107775;28;44705;-75
2021/07/19 05:20:23;;;;;;;;;;;;;;;;;;2107023;28;47292;-75
2021/07/19 05:21:24;;;;;;;;;;;;;;;;;;2105969;28;46040;-75
2021/07/19 05:22:26;;;;;;;;;;;;;;;;;;2105832;28;46039;-72
2021/07/19 05:23:27;;;;;;;;;;;;;;;;;;2106704;28;47317;-71
2021/07/19 05:24:30;;;;;;;;;;;;;;;;;;2106023;28;47371;-71
2021/07/19 05:25:32;;;;;;;;;;;;;;;;;;2106119;28;44715;-70
2021/07/19 05:26:35;;;;;;;;;;;;;;;;;;2106089;28;46154;-71
2021/07/19 05:27:36;;;;;;;;;;;;;;;;;;2106502;28;43374;-72
2021/07/19 05:28:38;;;;;;;;;;;;;;;;;;2097558;28;46260;-71
2021/07/19 05:29:40;;;;;;;;;;;;;;;;;;2105853;28;44087;-70
2021/07/19 05:30:44;;;;;;;;;;;;;;;;;;2105986;28;46996;-71
2021/07/19 05:31:46;;;;;;;;;;;;;;;;;;2105914;28;44191;-71
2021/07/19 05:32:50;;;;;;;;;;;;;;;;;;2105867;28;45255;-71
2021/07/19 05:33:51;;;;;;;;;;;;;;;;;;2105727;28;45512;-72
2021/07/19 05:34:53;;;;;;;;;;;;;;;;;;2105758;28;44626;-72
2021/07/19 05:35:56;;;;;;;;;;;;;;;;;;2105787;28;45430;-72
2021/07/19 05:36:58;;;;;;;;;;;;;;;;;;2106586;28;43510;-72
2021/07/19 05:37:59;;;;;;;;;;;;;;;;;;2098407;28;45593;-72
2021/07/19 05:39:01;;;;;;;;;;;;;;;;;;2098309;28;46434;-71
2021/07/19 05:40:03;;;;;;;;;;;;;;;;;;2106607;28;45143;-71
2021/07/19 05:41:07;;;;;;;;;;;;;;;;;;2106607;28;46602;-71
2021/07/19 05:42:08;;;;;;;;;;;;;;;;;;2099133;28;45187;-70
2021/07/19 05:43:10;;;;;;;;;;;;;;;;;;2106944;28;46709;-70
2021/07/19 05:44:11;;;;;;;;;;;;;;;;;;2098262;28;44247;-71
2021/07/19 05:45:16;;;;;;;;;;;;;;;;;;2106856;28;43626;-71
2021/07/19 05:46:17;;;;;;;;;;;;;;;;;;2106886;28;45410;-71
2021/07/19 05:47:19;;;;;;;;;;;;;;;;;;2107085;28;45651;-71
2021/07/19 05:48:20;;;;;;;;;;;;;;;;;;2106772;28;45147;-71
2021/07/19 05:49:22;;;;;;;;;;;;;;;;;;2107218;28;46467;-70
2021/07/19 05:50:23;;;;;;;;;;;;;;;;;;2106575;28;46728;-71
2021/07/19 05:51:25;;;;;;;;;;;;;;;;;;2107147;28;43001;-71
2021/07/19 05:52:27;;;;;;;;;;;;;;;;;;2107091;28;45316;-72
2021/07/19 05:53:29;;;;;;;;;;;;;;;;;;2107014;28;45801;-72
2021/07/19 05:54:30;;;;;;;;;;;;;;;;;;2106227;28;44121;-70
2021/07/19 05:55:33;;;;;;;;;;;;;;;;;;2107087;28;44600;-68
2021/07/19 05:56:36;;;;;;;;;;;;;;;;;;2106824;27;46484;-67
2021/07/19 05:57:40;;;;;;;;;;;;;;;;;;2106543;28;46427;-67
2021/07/19 05:58:41;;;;;;;;;;;;;;;;;;2105531;28;45440;-67
2021/07/19 05:59:43;;;;;;;;;;;;;;;;;;2105681;28;44581;-67
2021/07/19 06:00:45;;;;;;;;;;;;;;;;;;2105892;28;41978;-67
2021/07/19 06:01:47;;;;;;;;;;;;;;;;;;2105988;28;42259;-67
2021/07/19 06:02:48;;;;;;;;;;;;;;;;;;2105970;28;46786;-67
2021/07/19 06:03:50;;;;;;;;;;;;;;;;;;2107338;27;42791;-67
2021/07/19 06:04:52;;;;;;;;;;;;;;;;;;2106745;28;43263;-67
2021/07/19 06:05:53;;;;;;;;;;;;;;;;;;2106131;28;45387;-67
2021/07/19 06:06:55;;;;;;;;;;;;;;;;;;2097409;28;44344;-67
2021/07/19 06:07:57;;;;;;;;;;;;;;;;;;2097128;28;45300;-67
2021/07/19 06:08:59;;;;;;;;;;;;;;;;;;2097529;28;44107;-67
2021/07/19 06:10:00;;;;;;;;;;;;;;;;;;2097214;28;46959;-67
2021/07/19 06:11:05;;;;;;;;;;;;;;;;;;2106188;28;45738;-67
2021/07/19 06:12:08;;;;;;;;;;;;;;;;;;2105441;28;44600;-67
2021/07/19 06:13:12;;;;;;;;;;;;;;;;;;2105506;28;45852;-67
2021/07/19 06:14:14;;;;;;;;;;;;;;;;;;2105351;28;45918;-67
2021/07/19 06:15:15;;;;;;;;;;;;;;;;;;2106995;28;45902;-67
2021/07/19 06:16:17;;;;;;;;;;;;;;;;;;2105748;28;46312;-67
2021/07/19 06:17:20;;;;;;;;;;;;;;;;;;2097583;28;46101;-67
2021/07/19 06:18:22;;;;;;;;;;;;;;;;;;2105830;28;44459;-67
2021/07/19 06:19:23;;;;;;;;;;;;;;;;;;2105826;28;46879;-67
2021/07/19 06:20:28;;;;;;;;;;;;;;;;;;2106316;28;45847;-67
2021/07/19 06:21:29;;;;;;;;;;;;;;;;;;2105467;28;46211;-67
2021/07/19 06:22:31;;;;;;;;;;;;;;;;;;2096149;28;46113;-67
2021/07/19 06:23:32;;;;;;;;;;;;;;;;;;2105546;28;47059;-67
2021/07/19 06:24:33;;;;;;;;;;;;;;;;;;2105416;28;44683;-67
2021/07/19 06:25:36;;;;;;;;;;;;;;;;;;2097476;28;47096;-67
2021/07/19 06:26:39;;;;;;;;;;;;;;;;;;2105414;28;47122;-67
2021/07/19 06:27:43;;;;;;;;;;;;;;;;;;2105573;28;47195;-67
2021/07/19 06:28:44;;;;;;;;;;;;;;;;;;2105294;28;46092;-67
2021/07/19 06:29:46;;;;;;;;;;;;;;;;;;2105472;28;45884;-67
2021/07/19 06:30:47;;;;;;;;;;;;;;;;;;2106099;28;44793;-67
2021/07/19 06:31:49;;;;;;;;;;;;;;;;;;2105374;28;47215;-67
2021/07/19 06:32:50;;;;;;;;;;;;;;;;;;2105765;28;45806;-67
2021/07/19 06:33:52;;;;;;;;;;;;;;;;;;2098050;28;45868;-67
2021/07/19 06:34:53;;;;;;;;;;;;;;;;;;2097644;28;45351;-67
2021/07/19 06:35:54;;;;;;;;;;;;;;;;;;2106112;28;45564;-67
2021/07/19 06:36:56;;;;;;;;;;;;;;;;;;2106403;28;45461;-67
2021/07/19 06:37:57;;;;;;;;;;;;;;;;;;2106863;28;43398;-67
2021/07/19 06:38:59;;;;;;;;;;;;;;;;;;2105528;28;46752;-67
2021/07/19 06:40:00;;;;;;;;;;;;;;;;;;2105736;28;45305;-67
2021/07/19 06:41:02;;;;;;;;;;;;;;;;;;2105499;28;44619;-67
2021/07/19 06:42:03;;;;;;;;;;;;;;;;;;2110011;28;44027;-67
2021/07/19 06:43:05;;;;;;;;;;;;;;;;;;2102319;28;45187;-67
2021/07/19 06:44:06;;;;;;;;;;;;;;;;;;2102050;28;45360;-67
2021/07/19 06:45:10;;;;;;;;;;;;;;;;;;2111422;28;44100;-67
2021/07/19 06:46:11;;;;;;;;;;;;;;;;;;2108770;28;46380;-67
2021/07/19 06:47:13;;;;;;;;;;;;;;;;;;2100832;28;42245;-67
2021/07/19 06:48:14;;;;;;;;;;;;;;;;;;2108265;28;45909;-67
2021/07/19 06:49:16;;;;;;;;;;;;;;;;;;2097656;28;46514;-67
2021/07/19 06:50:17;;;;;;;;;;;;;;;;;;2105355;28;45393;-67
2021/07/19 06:51:19;;;;;;;;;;;;;;;;;;2107753;28;46715;-67
2021/07/19 06:52:21;;;;;;;;;;;;;;;;;;2107529;28;45632;-66
2021/07/19 06:53:23;;;;;;;;;;;;;;;;;;2104512;28;47437;-66
2021/07/19 06:54:24;;;;;;;;;;;;;;;;;;2103864;28;45144;-66
2021/07/19 06:55:26;;;;;;;;;;;;;;;;;;2114722;28;46285;-65
2021/07/19 06:56:27;;;;;;;;;;;;;;;;;;2114035;28;46575;-66
2021/07/19 06:57:31;;;;;;;;;;;;;;;;;;2115259;28;44047;-66
2021/07/19 06:58:33;;;;;;;;;;;;;;;;;;2115122;28;44856;-66
2021/07/19 06:59:34;;;;;;;;;;;;;;;;;;2107076;28;45770;-66
2021/07/19 07:00:36;;;;;;;;;;;;;;;;;;2107727;28;43242;-66
2021/07/19 07:01:39;;;;;;;;;;;;;;;;;;2113365;27;46616;-65
2021/07/19 07:02:41;;;;;;;;;;;;;;;;;;2113942;28;45706;-66
2021/07/19 07:03:42;;;;;;;;;;;;;;;;;;2114224;28;45586;-65
2021/07/19 07:04:59;;;;;;;;;;;;;;;;;;2114776;27;46149;-65
2021/07/19 07:06:01;;;;;;;;;;;;;;;;;;2114108;27;46597;-65
2021/07/19 07:07:03;;;;;;;;;;;;;;;;;;2114559;27;46927;-65
2021/07/19 07:08:05;;;;;;;;;;;;;;;;;;2116080;27;45615;-65